Terminal Aerodrome Forecast
Issued by NWS Upton, NY

Home | Current Version | Previous Version | Text Only | Print | Product List | Glossary On
Versions: 1 2 3 4 5 6 7 8 9 10 11 12 13 14 15 16 17 18 19 20 21 22 23 24 25
000
FTUS41 KOKX 211400 AAA
TAFBDR
TAF AMD
KBDR 211436Z 2115/2212 36004KT P6SM SCT015 BKN025
     FM211800 01007KT P6SM SCT025 BKN035
     FM220000 03004KT P6SM OVC020=

USA.gov is the U.S. government's official web portal to all federal, state and local government web resources and services.